Time;durP1;ratioP1;P1;durP2;ratioP2;P2;SDS_P1;SDS_P2;PMS_P1;PMS_P2;Temp;Humidity;BMP_temperature;BMP_pressure;BME280_temperature;BME280_humidity;BME280_pressure;Samples;Min_cycle;Max_cycle;Signal;HPM_P1;HPM_P2
2023/09/15 00:01:09;;;;;;;5.80;2.72;;;;;;;;;;4906699;29;20021;-77
2023/09/15 00:03:36;;;;;;;9.65;2.75;;;;;;;;;;4934819;29;20047;-77
2023/09/15 00:06:02;;;;;;;9.05;2.80;;;;;;;;;;4911652;29;20040;-78
2023/09/15 00:08:28;;;;;;;6.90;2.63;;;;;;;;;;4915875;29;20116;-77
2023/09/15 00:10:54;;;;;;;10.43;2.97;;;;;;;;;;4932827;29;20047;-77
2023/09/15 00:13:20;;;;;;;4.68;2.35;;;;;;;;;;4908487;29;20135;-77
2023/09/15 00:15:50;;;;;;;10.40;3.13;;;;;;;;;;4916518;29;20055;-77
2023/09/15 00:18:18;;;;;;;6.85;2.63;;;;;;;;;;4915434;29;20386;-80
2023/09/15 00:20:44;;;;;;;8.57;2.80;;;;;;;;;;4921397;29;20055;-77
2023/09/15 00:23:10;;;;;;;6.68;2.50;;;;;;;;;;4926011;29;20490;-78
2023/09/15 00:25:37;;;;;;;;;;;;;;;;;;4916122;29;20079;-77
2023/09/15 00:28:04;;;;;;;8.88;3.00;;;;;;;;;;4906828;29;19927;-77
2023/09/15 00:30:30;;;;;;;4.95;2.63;;;;;;;;;;4923367;29;20139;-77
2023/09/15 00:32:56;;;;;;;;;;;;;;;;;;4916223;29;20056;-77
2023/09/15 00:35:23;;;;;;;8.13;2.65;;;;;;;;;;4917346;29;19923;-77
2023/09/15 00:37:50;;;;;;;7.72;2.65;;;;;;;;;;4933583;29;20043;-77
2023/09/15 00:40:17;;;;;;;8.98;2.67;;;;;;;;;;4917971;29;20496;-77
2023/09/15 00:42:47;;;;;;;10.13;3.05;;;;;;;;;;4913893;29;20052;-77
2023/09/15 00:45:19;;;;;;;10.73;3.25;;;;;;;;;;4914289;29;20052;-77
2023/09/15 00:47:49;;;;;;;9.07;2.70;;;;;;;;;;4899584;29;20066;-77
2023/09/15 00:50:16;;;;;;;9.35;2.88;;;;;;;;;;4915002;29;20486;-77
2023/09/15 00:52:44;;;;;;;10.18;2.47;;;;;;;;;;4899710;29;20056;-77
2023/09/15 00:55:12;;;;;;;5.90;2.63;;;;;;;;;;4898224;29;20080;-78
2023/09/15 00:57:38;;;;;;;7.93;2.92;;;;;;;;;;4919881;29;20469;-77
2023/09/15 01:00:07;;;;;;;;;;;;;;;;;;4934055;29;20094;-77
2023/09/15 01:02:37;;;;;;;11.98;3.17;;;;;;;;;;4915931;29;19974;-77
2023/09/15 01:05:03;;;;;;;6.93;2.70;;;;;;;;;;4918064;29;20052;-77
2023/09/15 01:07:29;;;;;;;9.32;2.83;;;;;;;;;;4914390;29;20051;-77
2023/09/15 01:09:56;;;;;;;7.63;2.83;;;;;;;;;;4915220;29;20049;-77
2023/09/15 01:12:22;;;;;;;;;;;;;;;;;;4914373;29;20087;-77
2023/09/15 01:14:49;;;;;;;7.20;2.90;;;;;;;;;;4914707;29;20381;-77
2023/09/15 01:17:23;;;;;;;10.95;2.80;;;;;;;;;;4900734;29;20087;-77
2023/09/15 01:20:06;;;;;;;9.80;2.80;;;;;;;;;;4919364;29;20059;-78
2023/09/15 01:22:50;;;;;;;8.27;2.90;;;;;;;;;;4924089;29;20055;-78
2023/09/15 01:25:24;;;;;;;6.32;2.83;;;;;;;;;;4914970;29;20316;-79
2023/09/15 01:27:53;;;;;;;6.82;2.72;;;;;;;;;;4931380;29;20446;-78
2023/09/15 01:30:19;;;;;;;8.95;2.80;;;;;;;;;;4928858;29;20048;-78
2023/09/15 01:32:46;;;;;;;8.15;2.83;;;;;;;;;;4916965;29;20515;-79
2023/09/15 01:35:11;;;;;;;;;;;;;;;;;;4932957;29;20131;-79
2023/09/15 01:37:37;;;;;;;7.68;2.60;;;;;;;;;;4932449;29;20013;-79
2023/09/15 01:40:06;;;;;;;8.85;2.85;;;;;;;;;;4917042;29;20044;-78
2023/09/15 01:42:32;;;;;;;5.68;2.60;;;;;;;;;;4931571;29;20135;-79
2023/09/15 01:44:58;;;;;;;9.48;3.20;;;;;;;;;;4898684;29;20043;-78
2023/09/15 01:47:24;;;;;;;;;;;;;;;;;;4899818;29;20050;-79
2023/09/15 01:49:51;;;;;;;5.93;2.67;;;;;;;;;;4913556;29;19923;-78
2023/09/15 01:52:18;;;;;;;8.27;2.88;;;;;;;;;;4916175;29;20433;-79
2023/09/15 01:54:44;;;;;;;7.40;2.90;;;;;;;;;;4932194;29;20079;-79
2023/09/15 01:57:10;;;;;;;9.48;2.90;;;;;;;;;;4932037;29;20051;-79
2023/09/15 01:59:36;;;;;;;8.65;2.65;;;;;;;;;;4915472;29;20071;-79
2023/09/15 02:02:03;;;;;;;8.75;2.92;;;;;;;;;;4916549;29;20048;-78
2023/09/15 02:04:29;;;;;;;10.10;3.15;;;;;;;;;;4917523;29;20043;-78
2023/09/15 02:06:55;;;;;;;9.88;3.28;;;;;;;;;;4899509;29;20099;-78
2023/09/15 02:09:21;;;;;;;6.10;2.90;;;;;;;;;;4932546;29;20118;-78
2023/09/15 02:11:47;;;;;;;7.60;3.30;;;;;;;;;;4917619;29;20051;-78
2023/09/15 02:14:13;;;;;;;;;;;;;;;;;;4916587;29;20099;-77
2023/09/15 02:16:39;;;;;;;8.00;3.03;;;;;;;;;;4913534;29;19923;-78
2023/09/15 02:19:07;;;;;;;7.47;2.97;;;;;;;;;;4914694;29;20056;-78
2023/09/15 02:21:33;;;;;;;9.48;2.72;;;;;;;;;;4898571;29;20104;-78
2023/09/15 02:24:01;;;;;;;11.88;3.30;;;;;;;;;;4914279;29;20051;-77
2023/09/15 02:26:27;;;;;;;9.00;2.97;;;;;;;;;;4901426;29;20052;-78
2023/09/15 02:28:53;;;;;;;7.43;3.10;;;;;;;;;;4897808;29;20522;-78
2023/09/15 02:31:19;;;;;;;;;;;;;;;;;;4914053;29;20050;-79
2023/09/15 02:33:45;;;;;;;12.35;3.22;;;;;;;;;;4919824;29;19927;-78
2023/09/15 02:36:11;;;;;;;7.78;3.30;;;;;;;;;;4923253;29;20405;-78
2023/09/15 02:38:37;;;;;;;8.55;3.00;;;;;;;;;;4931359;29;20804;-78
2023/09/15 02:41:03;;;;;;;8.10;3.00;;;;;;;;;;4901558;29;20143;-78
2023/09/15 02:43:29;;;;;;;8.18;3.30;;;;;;;;;;4916037;29;20052;-78
2023/09/15 02:45:55;;;;;;;;;;;;;;;;;;4934480;29;20047;-78
2023/09/15 02:48:22;;;;;;;7.38;3.22;;;;;;;;;;4920262;29;19923;-79
2023/09/15 02:50:48;;;;;;;8.85;3.03;;;;;;;;;;4936699;29;20064;-78
2023/09/15 02:53:14;;;;;;;7.70;3.50;;;;;;;;;;4902760;29;20048;-78
2023/09/15 02:55:40;;;;;;;;;;;;;;;;;;4913001;29;20047;-78
2023/09/15 02:58:06;;;;;;;7.78;3.10;;;;;;;;;;4924404;29;20002;-78
2023/09/15 03:00:32;;;;;;;;;;;;;;;;;;4901038;29;20044;-78
2023/09/15 03:02:58;;;;;;;6.38;3.00;;;;;;;;;;4933186;29;19923;-78
2023/09/15 03:05:26;;;;;;;11.35;3.35;;;;;;;;;;4916953;29;20134;-78
2023/09/15 03:07:52;;;;;;;9.30;3.45;;;;;;;;;;4916810;29;20041;-78
2023/09/15 03:10:18;;;;;;;10.65;3.40;;;;;;;;;;4932515;29;20044;-78
2023/09/15 03:12:44;;;;;;;9.70;3.53;;;;;;;;;;4919607;29;20046;-78
2023/09/15 03:15:11;;;;;;;6.13;3.00;;;;;;;;;;4919674;29;20052;-78
2023/09/15 03:17:37;;;;;;;10.25;3.53;;;;;;;;;;4904603;29;20089;-78
2023/09/15 03:20:15;;;;;;;;;;;;;;;;;;4905179;29;20044;-77
2023/09/15 03:22:41;;;;;;;;;;;;;;;;;;4929037;29;19973;-78
2023/09/15 03:25:07;;;;;;;9.13;3.08;;;;;;;;;;4917553;29;19950;-78
2023/09/15 03:27:34;;;;;;;9.05;3.42;;;;;;;;;;4934797;29;20102;-78
2023/09/15 03:30:00;;;;;;;9.48;3.63;;;;;;;;;;4917297;29;20142;-78
2023/09/15 03:32:26;;;;;;;8.40;3.58;;;;;;;;;;4900683;29;20048;-80
2023/09/15 03:34:52;;;;;;;7.95;3.70;;;;;;;;;;4901216;29;20079;-78
2023/09/15 03:37:18;;;;;;;;;;;;;;;;;;4916917;29;20486;-78
2023/09/15 03:39:44;;;;;;;7.25;3.30;;;;;;;;;;4900874;29;19930;-78
2023/09/15 03:42:10;;;;;;;6.68;3.50;;;;;;;;;;4903577;29;20475;-78
2023/09/15 03:44:36;;;;;;;8.07;3.22;;;;;;;;;;4934587;29;20482;-78
2023/09/15 03:47:03;;;;;;;11.45;3.80;;;;;;;;;;4918340;29;20582;-77
2023/09/15 03:49:30;;;;;;;8.70;3.17;;;;;;;;;;4923454;29;20047;-80
2023/09/15 03:51:56;;;;;;;8.07;3.58;;;;;;;;;;4915954;29;20051;-78
2023/09/15 03:54:24;;;;;;;5.93;3.20;;;;;;;;;;4903749;29;20063;-78
2023/09/15 03:56:50;;;;;;;7.82;3.90;;;;;;;;;;4934329;29;20726;-78
2023/09/15 03:59:16;;;;;;;9.98;3.10;;;;;;;;;;4900803;29;20147;-78
2023/09/15 04:01:42;;;;;;;8.25;3.20;;;;;;;;;;4918233;29;20397;-78
2023/09/15 04:04:08;;;;;;;;;;;;;;;;;;4935764;29;20090;-78
2023/09/15 04:06:35;;;;;;;7.47;3.65;;;;;;;;;;4932203;29;19974;-78
2023/09/15 04:09:07;;;;;;;10.55;3.50;;;;;;;;;;4935168;29;20397;-77
2023/09/15 04:11:34;;;;;;;13.35;3.65;;;;;;;;;;4934244;29;20748;-79
2023/09/15 04:14:00;;;;;;;8.73;3.60;;;;;;;;;;4934279;29;20055;-77
2023/09/15 04:16:26;;;;;;;7.53;3.90;;;;;;;;;;4934635;29;20040;-78
2023/09/15 04:18:52;;;;;;;;;;;;;;;;;;4912423;29;20566;-78
2023/09/15 04:21:18;;;;;;;10.70;3.25;;;;;;;;;;4916099;29;19923;-78
2023/09/15 04:23:44;;;;;;;10.05;3.53;;;;;;;;;;4899616;29;20100;-78
2023/09/15 04:26:10;;;;;;;10.48;3.85;;;;;;;;;;4900134;29;20043;-78
2023/09/15 04:28:36;;;;;;;8.75;3.90;;;;;;;;;;4914579;29;20052;-78
2023/09/15 04:31:03;;;;;;;7.78;3.58;;;;;;;;;;4899493;29;20533;-78
2023/09/15 04:33:29;;;;;;;7.82;3.50;;;;;;;;;;4906982;29;20048;-78
2023/09/15 04:35:55;;;;;;;6.53;3.50;;;;;;;;;;4920579;29;20698;-78
2023/09/15 04:38:21;;;;;;;8.43;3.85;;;;;;;;;;4899991;29;20459;-78
2023/09/15 04:40:48;;;;;;;13.25;4.00;;;;;;;;;;4899239;29;20047;-78
2023/09/15 04:43:16;;;;;;;8.43;3.60;;;;;;;;;;4914695;29;20051;-78
2023/09/15 04:45:43;;;;;;;9.40;3.70;;;;;;;;;;4899009;29;20108;-77
2023/09/15 04:48:09;;;;;;;9.95;3.78;;;;;;;;;;4915663;29;20050;-78
2023/09/15 04:50:38;;;;;;;9.07;3.78;;;;;;;;;;4915370;29;20098;-80
2023/09/15 04:53:06;;;;;;;10.77;4.07;;;;;;;;;;4915122;29;20055;-79
2023/09/15 04:55:33;;;;;;;11.68;4.45;;;;;;;;;;4933748;29;20068;-77
2023/09/15 04:57:59;;;;;;;;;;;;;;;;;;4932240;29;20055;-77
2023/09/15 05:00:29;;;;;;;7.15;4.13;;;;;;;;;;4932715;29;19942;-78
2023/09/15 05:02:59;;;;;;;8.57;4.68;;;;;;;;;;4918888;29;20123;-78
2023/09/15 05:05:25;;;;;;;10.15;4.13;;;;;;;;;;4918282;29;20099;-78
2023/09/15 05:07:51;;;;;;;12.05;4.40;;;;;;;;;;4933432;29;20095;-78
2023/09/15 05:10:17;;;;;;;12.75;3.92;;;;;;;;;;4911195;29;20047;-78
2023/09/15 05:12:43;;;;;;;;;;;;;;;;;;4918014;29;20103;-78
2023/09/15 05:15:09;;;;;;;12.52;4.00;;;;;;;;;;4933224;29;19922;-78
2023/09/15 05:17:35;;;;;;;10.32;3.78;;;;;;;;;;4918074;29;20051;-78
2023/09/15 05:20:01;;;;;;;8.02;3.67;;;;;;;;;;4917997;29;20262;-78
2023/09/15 05:22:27;;;;;;;;;;;;;;;;;;4931616;29;20047;-78
2023/09/15 05:24:55;;;;;;;9.20;3.90;;;;;;;;;;4933470;29;20376;-77
2023/09/15 05:27:21;;;;;;;9.82;3.90;;;;;;;;;;4930384;29;20059;-77
2023/09/15 05:29:47;;;;;;;;;;;;;;;;;;4911867;29;20055;-78
2023/09/15 05:32:13;;;;;;;11.38;3.90;;;;;;;;;;4917650;29;19933;-78
2023/09/15 05:34:39;;;;;;;7.22;4.03;;;;;;;;;;4933824;29;20052;-78
2023/09/15 05:37:05;;;;;;;;;;;;;;;;;;4909851;29;20135;-78
2023/09/15 05:39:31;;;;;;;7.95;4.35;;;;;;;;;;4914888;29;20013;-77
2023/09/15 05:41:57;;;;;;;8.35;4.28;;;;;;;;;;4914194;29;20458;-78
2023/09/15 05:44:23;;;;;;;10.70;4.07;;;;;;;;;;4913834;29;20052;-77
2023/09/15 05:46:49;;;;;;;10.65;4.50;;;;;;;;;;4926992;29;20055;-78
2023/09/15 05:49:15;;;;;;;10.93;4.47;;;;;;;;;;4908116;29;20048;-78
2023/09/15 05:51:41;;;;;;;;;;;;;;;;;;4883885;29;20048;-78
2023/09/15 05:54:07;;;;;;;10.38;4.00;;;;;;;;;;4913692;29;19923;-78
2023/09/15 05:56:33;;;;;;;;;;;;;;;;;;4917483;29;20334;-78
2023/09/15 05:58:59;;;;;;;13.20;4.80;;;;;;;;;;4932232;29;20404;-78
2023/09/15 06:01:25;;;;;;;13.85;4.57;;;;;;;;;;4917422;29;20046;-78
2023/09/15 06:03:52;;;;;;;11.32;4.72;;;;;;;;;;4933145;29;20047;-78
2023/09/15 06:06:18;;;;;;;;;;;;;;;;;;4917135;29;20056;-78
2023/09/15 06:08:44;;;;;;;10.27;4.63;;;;;;;;;;4916049;29;19929;-78
2023/09/15 06:11:10;;;;;;;8.77;4.45;;;;;;;;;;4901277;29;20059;-78
2023/09/15 06:13:38;;;;;;;9.85;4.25;;;;;;;;;;4901097;29;20548;-78
2023/09/15 06:16:04;;;;;;;10.15;4.20;;;;;;;;;;4899450;29;20080;-78
2023/09/15 06:18:31;;;;;;;10.55;4.35;;;;;;;;;;4903527;29;20051;-78
2023/09/15 06:20:57;;;;;;;10.68;4.45;;;;;;;;;;4918187;29;20047;-78
2023/09/15 06:23:24;;;;;;;;;;;;;;;;;;4918164;29;20056;-78
2023/09/15 06:25:50;;;;;;;11.23;4.60;;;;;;;;;;4936267;29;19930;-75
2023/09/15 06:28:17;;;;;;;13.48;5.85;;;;;;;;;;4930753;29;20048;-73
2023/09/15 06:30:43;;;;;;;10.00;5.22;;;;;;;;;;4935609;29;20063;-72
2023/09/15 06:33:09;;;;;;;10.57;5.07;;;;;;;;;;4937269;29;20399;-72
2023/09/15 06:35:35;;;;;;;12.30;5.35;;;;;;;;;;4936952;29;20058;-76
2023/09/15 06:38:02;;;;;;;10.25;6.40;;;;;;;;;;4920245;29;20048;-75
2023/09/15 06:40:28;;;;;;;11.93;5.20;;;;;;;;;;4936537;29;20103;-78
2023/09/15 06:42:54;;;;;;;;;;;;;;;;;;4920477;29;20107;-79
2023/09/15 06:45:20;;;;;;;10.63;4.30;;;;;;;;;;4918562;29;19927;-77
2023/09/15 06:47:47;;;;;;;8.60;4.05;;;;;;;;;;4936795;29;20051;-77
2023/09/15 06:50:12;;;;;;;;;;;;;;;;;;4930081;29;20672;-78
2023/09/15 06:52:39;;;;;;;11.95;4.38;;;;;;;;;;4915159;29;19922;-77
2023/09/15 06:55:05;;;;;;;10.98;4.15;;;;;;;;;;4931382;29;20071;-77
2023/09/15 06:57:31;;;;;;;8.10;4.30;;;;;;;;;;4932152;29;20417;-77
2023/09/15 06:59:57;;;;;;;9.65;4.30;;;;;;;;;;4924899;29;20188;-78
2023/09/15 07:02:23;;;;;;;13.75;4.75;;;;;;;;;;4916972;29;20056;-78
2023/09/15 07:04:49;;;;;;;10.18;4.70;;;;;;;;;;4901861;29;20060;-77
2023/09/15 07:07:15;;;;;;;;;;;;;;;;;;4901490;29;20059;-78
2023/09/15 07:09:41;;;;;;;9.27;4.25;;;;;;;;;;4917446;29;19923;-77
2023/09/15 07:12:08;;;;;;;10.00;4.15;;;;;;;;;;4906848;29;20054;-78
2023/09/15 07:14:34;;;;;;;9.95;3.95;;;;;;;;;;4927226;29;20056;-78
2023/09/15 07:17:00;;;;;;;7.68;3.90;;;;;;;;;;4915174;29;20054;-78
2023/09/15 07:19:26;;;;;;;;;;;;;;;;;;4936197;29;20110;-78
2023/09/15 07:21:52;;;;;;;10.27;4.40;;;;;;;;;;4917014;29;19963;-78
2023/09/15 07:24:18;;;;;;;;;;;;;;;;;;4932583;29;20315;-78
2023/09/15 07:26:45;;;;;;;7.18;3.72;;;;;;;;;;4935042;29;20404;-78
2023/09/15 07:29:11;;;;;;;8.88;5.30;;;;;;;;;;4933599;29;20075;-75
2023/09/15 07:31:37;;;;;;;9.00;3.90;;;;;;;;;;4918485;29;20052;-76
2023/09/15 07:34:03;;;;;;;;;;;;;;;;;;4934331;29;20051;-76
2023/09/15 07:36:30;;;;;;;10.32;4.05;;;;;;;;;;4919679;29;19930;-72
2023/09/15 07:38:56;;;;;;;9.23;3.85;;;;;;;;;;4936694;29;20051;-73
2023/09/15 07:41:22;;;;;;;6.55;4.25;;;;;;;;;;4935960;29;20059;-73
2023/09/15 07:43:48;;;;;;;;;;;;;;;;;;4930967;29;20098;-72
2023/09/15 07:46:14;;;;;;;9.35;4.55;;;;;;;;;;4933252;29;19933;-71
2023/09/15 07:48:41;;;;;;;7.97;4.72;;;;;;;;;;4935208;29;20043;-73
2023/09/15 07:51:07;;;;;;;8.75;5.10;;;;;;;;;;4933419;29;20119;-80
2023/09/15 07:53:33;;;;;;;;;;;;;;;;;;4898795;29;20131;-87
2023/09/15 07:55:59;;;;;;;8.35;3.78;;;;;;;;;;4925459;29;19958;-87
2023/09/15 07:58:25;;;;;;;5.75;3.58;;;;;;;;;;4938499;29;20057;-87
2023/09/15 08:00:53;;;;;;;;;;;;;;;;;;4921923;29;20054;-87
2023/09/15 08:03:19;;;;;;;7.15;3.45;;;;;;;;;;4934900;29;19930;-71
2023/09/15 08:05:45;;;;;;;;;;;;;;;;;;4951017;29;20045;-71
2023/09/15 08:08:11;;;;;;;5.27;3.20;;;;;;;;;;4951162;29;20335;-71
2023/09/15 08:10:37;;;;;;;;;;;;;;;;;;4950070;29;20047;-71
2023/09/15 08:13:03;;;;;;;6.88;3.35;;;;;;;;;;4946081;29;19930;-73
2023/09/15 08:15:29;;;;;;;;;;;;;;;;;;4947353;29;20039;-73
2023/09/15 08:17:56;;;;;;;6.78;3.25;;;;;;;;;;4951540;29;20446;-71
2023/09/15 08:20:22;;;;;;;4.50;3.03;;;;;;;;;;4941320;29;20051;-74
2023/09/15 08:22:48;;;;;;;5.22;2.85;;;;;;;;;;4911468;29;20055;-74
2023/09/15 08:25:14;;;;;;;11.90;3.63;;;;;;;;;;4923477;29;20044;-81
2023/09/15 08:27:44;;;;;;;;;;;;;;;;;;4945151;29;20087;-81
2023/09/15 08:30:10;;;;;;;9.57;3.35;;;;;;;;;;4938717;29;19929;-77
2023/09/15 08:32:36;;;;;;;4.22;2.88;;;;;;;;;;4934834;29;20055;-77
2023/09/15 08:35:03;;;;;;;;;;;;;;;;;;4929023;29;20078;-78
2023/09/15 08:37:30;;;;;;;7.97;3.25;;;;;;;;;;4941754;28;19930;-79
2023/09/15 08:39:58;;;;;;;8.98;3.38;;;;;;;;;;4907677;29;20557;-77
2023/09/15 08:42:23;;;;;;;;;;;;;;;;;;4932421;29;20115;-78
2023/09/15 08:44:50;;;;;;;7.93;3.50;;;;;;;;;;4916056;29;19923;-77
2023/09/15 08:47:17;;;;;;;9.70;3.38;;;;;;;;;;4932242;29;20066;-78
2023/09/15 08:49:43;;;;;;;6.35;2.92;;;;;;;;;;4910078;29;20420;-77
2023/09/15 08:52:10;;;;;;;8.20;3.00;;;;;;;;;;4928804;29;20048;-78
2023/09/15 08:54:37;;;;;;;4.68;2.60;;;;;;;;;;4917892;29;20444;-77
2023/09/15 08:57:03;;;;;;;8.57;2.75;;;;;;;;;;4933646;29;20055;-78
2023/09/15 08:59:29;;;;;;;;;;;;;;;;;;4917456;29;20513;-78
2023/09/15 09:01:55;;;;;;;5.93;2.60;;;;;;;;;;4931603;29;19930;-78
2023/09/15 09:04:21;;;;;;;;;;;;;;;;;;4932018;29;20192;-78
2023/09/15 09:06:48;;;;;;;5.40;2.72;;;;;;;;;;4916044;29;20354;-77
2023/09/15 09:09:14;;;;;;;5.18;2.40;;;;;;;;;;4923988;29;20094;-78
2023/09/15 09:11:40;;;;;;;6.97;2.45;;;;;;;;;;4933702;29;20044;-77
2023/09/15 09:14:11;;;;;;;7.97;2.85;;;;;;;;;;4919154;29;20040;-77
2023/09/15 09:16:43;;;;;;;10.13;2.92;;;;;;;;;;4925112;29;20066;-77
2023/09/15 09:19:10;;;;;;;4.78;2.55;;;;;;;;;;4925254;29;20059;-77
2023/09/15 09:21:36;;;;;;;6.32;2.33;;;;;;;;;;4917264;29;20047;-77
2023/09/15 09:24:02;;;;;;;5.88;2.88;;;;;;;;;;4917780;29;20044;-77
2023/09/15 09:26:28;;;;;;;3.72;2.17;;;;;;;;;;4932868;29;20048;-77
2023/09/15 09:28:56;;;;;;;;;;;;;;;;;;4933226;29;20043;-78
2023/09/15 09:31:24;;;;;;;3.75;2.22;;;;;;;;;;4920335;29;19927;-78
2023/09/15 09:33:50;;;;;;;8.38;2.97;;;;;;;;;;4933752;29;20214;-77
2023/09/15 09:36:17;;;;;;;4.32;2.22;;;;;;;;;;4917122;29;20047;-78
2023/09/15 09:38:44;;;;;;;5.15;2.30;;;;;;;;;;4930115;29;20051;-77
2023/09/15 09:41:10;;;;;;;8.07;2.50;;;;;;;;;;4917361;29;20469;-77
2023/09/15 09:43:38;;;;;;;6.05;2.15;;;;;;;;;;4900705;29;20048;-77
2023/09/15 09:46:06;;;;;;;10.30;2.70;;;;;;;;;;4933196;29;20055;-77
2023/09/15 09:48:34;;;;;;;7.43;2.20;;;;;;;;;;4909491;29;20043;-78
2023/09/15 09:51:01;;;;;;;8.02;2.03;;;;;;;;;;4932683;29;20099;-77
2023/09/15 09:53:32;;;;;;;5.00;2.20;;;;;;;;;;4916671;29;20130;-77
2023/09/15 09:56:01;;;;;;;6.05;2.08;;;;;;;;;;4920199;29;20430;-77
2023/09/15 09:58:27;;;;;;;5.70;2.17;;;;;;;;;;4920043;29;20051;-78
2023/09/15 10:00:54;;;;;;;2.75;1.83;;;;;;;;;;4918676;29;20102;-77
2023/09/15 10:03:19;;;;;;;;;;;;;;;;;;4937255;29;20140;-78
2023/09/15 10:05:46;;;;;;;7.45;2.38;;;;;;;;;;4920230;29;19985;-77
2023/09/15 10:08:12;;;;;;;5.95;2.08;;;;;;;;;;4917920;29;20108;-77
2023/09/15 10:10:41;;;;;;;6.55;2.20;;;;;;;;;;4917334;29;20048;-77
2023/09/15 10:13:08;;;;;;;5.20;2.03;;;;;;;;;;4920305;29;20498;-78
2023/09/15 10:15:40;;;;;;;4.03;1.65;;;;;;;;;;4920240;29;20058;-78
2023/09/15 10:18:07;;;;;;;4.88;1.83;;;;;;;;;;4936797;29;20099;-77
2023/09/15 10:20:35;;;;;;;4.30;1.90;;;;;;;;;;4923741;29;20091;-77
2023/09/15 10:23:01;;;;;;;7.75;2.10;;;;;;;;;;4919768;29;20062;-77
2023/09/15 10:25:27;;;;;;;4.35;1.65;;;;;;;;;;4928144;29;20056;-77
2023/09/15 10:27:55;;;;;;;8.65;2.40;;;;;;;;;;4931427;29;20406;-78
2023/09/15 10:30:21;;;;;;;5.72;1.83;;;;;;;;;;4911885;29;20401;-79
2023/09/15 10:32:48;;;;;;;6.32;2.20;;;;;;;;;;4936695;29;20040;-77
2023/09/15 10:35:16;;;;;;;8.07;2.28;;;;;;;;;;4930461;29;20058;-77
2023/09/15 10:37:43;;;;;;;4.72;1.92;;;;;;;;;;4912916;29;20048;-79
2023/09/15 10:40:10;;;;;;;9.30;2.17;;;;;;;;;;4924306;29;20095;-79
2023/09/15 10:42:48;;;;;;;4.93;1.60;;;;;;;;;;4914719;29;20067;-78
2023/09/15 10:45:14;;;;;;;4.90;2.10;;;;;;;;;;4927537;29;20051;-79
2023/09/15 10:47:42;;;;;;;4.10;1.95;;;;;;;;;;4914299;29;20130;-77
2023/09/15 10:50:09;;;;;;;7.45;2.38;;;;;;;;;;4936562;29;20130;-78
2023/09/15 10:52:38;;;;;;;7.35;2.20;;;;;;;;;;4924832;29;20067;-76
2023/09/15 10:55:05;;;;;;;4.88;2.10;;;;;;;;;;4935771;29;20059;-77
2023/09/15 10:57:35;;;;;;;5.47;1.70;;;;;;;;;;4935178;29;20137;-77
2023/09/15 11:00:05;;;;;;;4.72;1.80;;;;;;;;;;4936064;29;20058;-78
2023/09/15 11:02:35;;;;;;;10.88;2.15;;;;;;;;;;4901879;29;20060;-78
2023/09/15 11:05:01;;;;;;;4.70;1.80;;;;;;;;;;4914095;29;20088;-78
2023/09/15 11:07:27;;;;;;;3.90;1.80;;;;;;;;;;4934979;29;20138;-78
2023/09/15 11:09:56;;;;;;;4.30;2.03;;;;;;;;;;4924121;29;20048;-78
2023/09/15 11:12:22;;;;;;;4.43;1.95;;;;;;;;;;4901029;29;20060;-78
2023/09/15 11:14:48;;;;;;;2.85;1.52;;;;;;;;;;4916475;29;20083;-78
2023/09/15 11:17:18;;;;;;;3.90;1.60;;;;;;;;;;4913187;29;20048;-78
2023/09/15 11:19:44;;;;;;;5.93;2.08;;;;;;;;;;4903834;29;20094;-78
2023/09/15 11:22:11;;;;;;;7.70;2.03;;;;;;;;;;4917059;29;20044;-78
2023/09/15 11:24:37;;;;;;;6.45;2.10;;;;;;;;;;4907037;29;20083;-80
2023/09/15 11:27:04;;;;;;;7.30;2.15;;;;;;;;;;4922860;29;20060;-78
2023/09/15 11:29:31;;;;;;;4.65;1.90;;;;;;;;;;4905454;29;20406;-78
2023/09/15 11:31:58;;;;;;;5.82;2.20;;;;;;;;;;4928182;29;20079;-77
2023/09/15 11:34:24;;;;;;;3.78;1.65;;;;;;;;;;4930161;29;20506;-77
2023/09/15 11:36:51;;;;;;;3.63;1.70;;;;;;;;;;4904176;29;20433;-77
2023/09/15 11:39:17;;;;;;;6.22;1.83;;;;;;;;;;4935457;29;20044;-78
2023/09/15 11:41:52;;;;;;;4.15;1.95;;;;;;;;;;4928627;29;20048;-80
2023/09/15 11:44:18;;;;;;;5.45;2.15;;;;;;;;;;4916269;29;20044;-78
2023/09/15 11:46:44;;;;;;;4.93;2.00;;;;;;;;;;4918438;29;20421;-79
2023/09/15 11:49:10;;;;;;;7.03;1.90;;;;;;;;;;4919245;29;20098;-78
2023/09/15 11:51:37;;;;;;;5.40;1.90;;;;;;;;;;4931520;29;20040;-78
2023/09/15 11:54:05;;;;;;;4.97;1.80;;;;;;;;;;4905441;29;20059;-79
2023/09/15 11:56:31;;;;;;;3.97;1.80;;;;;;;;;;4930833;29;20522;-81
2023/09/15 11:58:58;;;;;;;3.88;1.67;;;;;;;;;;4913395;29;20044;-79
2023/09/15 12:01:25;;;;;;;4.35;1.65;;;;;;;;;;4932980;29;20075;-79
2023/09/15 12:03:52;;;;;;;5.57;1.95;;;;;;;;;;4906586;29;20081;-80
2023/09/15 12:06:19;;;;;;;6.50;2.50;;;;;;;;;;4912773;29;20043;-78
2023/09/15 12:08:50;;;;;;;8.43;2.40;;;;;;;;;;4912121;29;20449;-79
2023/09/15 12:11:17;;;;;;;5.53;2.28;;;;;;;;;;4928751;29;20122;-80
2023/09/15 12:13:43;;;;;;;7.10;2.38;;;;;;;;;;4920882;29;20052;-79
2023/09/15 12:16:20;;;;;;;6.35;2.75;;;;;;;;;;4934536;29;20051;-79
2023/09/15 12:18:46;;;;;;;6.10;2.50;;;;;;;;;;4906180;29;20060;-80
2023/09/15 12:21:13;;;;;;;7.55;2.60;;;;;;;;;;4934808;29;20048;-79
2023/09/15 12:23:39;;;;;;;8.50;2.47;;;;;;;;;;4918369;29;20131;-80
2023/09/15 12:26:05;;;;;;;8.15;2.47;;;;;;;;;;4917052;29;20520;-78
2023/09/15 12:28:34;;;;;;;7.25;2.67;;;;;;;;;;4913012;29;20085;-82
2023/09/15 12:31:00;;;;;;;4.90;2.15;;;;;;;;;;4924625;29;20048;-80
2023/09/15 12:33:27;;;;;;;4.75;2.30;;;;;;;;;;4909667;29;20052;-81
2023/09/15 12:35:53;;;;;;;2.75;1.40;;;;;;;;;;4900696;29;20135;-79
2023/09/15 12:38:19;;;;;;;5.82;2.50;;;;;;;;;;4915460;29;20477;-79
2023/09/15 12:40:46;;;;;;;9.98;2.80;;;;;;;;;;4917119;29;20047;-78
2023/09/15 12:43:13;;;;;;;6.32;2.80;;;;;;;;;;4933169;29;20398;-77
2023/09/15 12:45:39;;;;;;;5.53;2.80;;;;;;;;;;4918087;29;20052;-85
2023/09/15 12:48:05;;;;;;;5.38;2.85;;;;;;;;;;4918162;29;20039;-81
2023/09/15 12:50:34;;;;;;;5.32;2.03;;;;;;;;;;4930988;29;20163;-80
2023/09/15 12:53:00;;;;;;;8.30;3.03;;;;;;;;;;4917960;29;20201;-80
2023/09/15 12:55:27;;;;;;;7.63;2.97;;;;;;;;;;4929283;29;20417;-80
2023/09/15 12:57:53;;;;;;;7.97;2.22;;;;;;;;;;4915162;29;20056;-81
2023/09/15 13:00:20;;;;;;;10.02;3.13;;;;;;;;;;4916062;29;20059;-80
2023/09/15 13:02:46;;;;;;;7.40;2.70;;;;;;;;;;4917479;29;20051;-80
2023/09/15 13:05:12;;;;;;;9.57;3.40;;;;;;;;;;4933051;29;20055;-79
2023/09/15 13:07:42;;;;;;;8.95;3.17;;;;;;;;;;4933903;29;20512;-79
2023/09/15 13:10:12;;;;;;;8.50;3.30;;;;;;;;;;4933614;29;20044;-80
2023/09/15 13:12:38;;;;;;;6.65;3.05;;;;;;;;;;4931586;29;20552;-79
2023/09/15 13:15:05;;;;;;;10.00;3.28;;;;;;;;;;4916785;29;20047;-80
2023/09/15 13:17:32;;;;;;;6.00;2.72;;;;;;;;;;4911368;29;20054;-79
2023/09/15 13:19:59;;;;;;;6.32;3.00;;;;;;;;;;4913269;29;20130;-80
2023/09/15 13:22:26;;;;;;;9.57;2.90;;;;;;;;;;4910010;29;20051;-80
2023/09/15 13:24:53;;;;;;;7.72;3.25;;;;;;;;;;4920990;29;20048;-80
2023/09/15 13:27:19;;;;;;;9.90;3.28;;;;;;;;;;4898454;29;20051;-79
2023/09/15 13:29:45;;;;;;;7.65;2.60;;;;;;;;;;4898360;29;20048;-81
2023/09/15 13:32:11;;;;;;;6.72;2.70;;;;;;;;;;4898359;29;20094;-80
2023/09/15 13:34:37;;;;;;;4.70;2.45;;;;;;;;;;4915024;29;20416;-79
2023/09/15 13:37:03;;;;;;;7.57;3.22;;;;;;;;;;4898589;29;20059;-80
2023/09/15 13:39:29;;;;;;;7.45;2.72;;;;;;;;;;4926191;29;20497;-81
2023/09/15 13:41:56;;;;;;;6.47;2.72;;;;;;;;;;4929262;29;20060;-81
2023/09/15 13:44:22;;;;;;;8.02;2.90;;;;;;;;;;4897754;29;20096;-82
2023/09/15 13:46:48;;;;;;;7.47;3.00;;;;;;;;;;4898491;29;20059;-82
2023/09/15 13:49:14;;;;;;;6.15;2.63;;;;;;;;;;4898270;29;20146;-79
2023/09/15 13:51:40;;;;;;;4.93;2.13;;;;;;;;;;4927497;29;20498;-79
2023/09/15 13:54:06;;;;;;;9.27;2.92;;;;;;;;;;4932682;29;20047;-80
2023/09/15 13:56:32;;;;;;;8.50;2.50;;;;;;;;;;4901559;29;20062;-80
2023/09/15 13:58:58;;;;;;;5.57;2.13;;;;;;;;;;4915313;29;20062;-80
2023/09/15 14:01:27;;;;;;;5.15;2.28;;;;;;;;;;4891038;29;20097;-80
2023/09/15 14:03:53;;;;;;;5.50;2.50;;;;;;;;;;4914166;29;20109;-80
2023/09/15 14:06:19;;;;;;;6.00;2.28;;;;;;;;;;4897912;29;20052;-79
2023/09/15 14:08:46;;;;;;;9.52;2.80;;;;;;;;;;4914445;29;20044;-79
2023/09/15 14:11:12;;;;;;;7.28;2.78;;;;;;;;;;4910093;29;20336;-79
2023/09/15 14:13:38;;;;;;;7.18;2.70;;;;;;;;;;4916731;29;20079;-80
2023/09/15 14:16:04;;;;;;;6.30;2.67;;;;;;;;;;4916805;29;20048;-77
2023/09/15 14:18:30;;;;;;;7.90;2.42;;;;;;;;;;4901736;29;20062;-78
2023/09/15 14:20:58;;;;;;;5.22;2.20;;;;;;;;;;4930360;29;20099;-84
2023/09/15 14:23:25;;;;;;;2.67;1.50;;;;;;;;;;4923169;29;20070;-82
2023/09/15 14:25:51;;;;;;;7.72;2.63;;;;;;;;;;4916949;29;20075;-78
2023/09/15 14:28:17;;;;;;;6.90;2.45;;;;;;;;;;4932405;29;20051;-79
2023/09/15 14:30:44;;;;;;;7.78;2.88;;;;;;;;;;4932988;29;20135;-80
2023/09/15 14:33:10;;;;;;;6.50;2.60;;;;;;;;;;4917126;29;20054;-77
2023/09/15 14:35:36;;;;;;;5.22;2.40;;;;;;;;;;4933015;29;20047;-73
2023/09/15 14:38:02;;;;;;;5.55;2.40;;;;;;;;;;4932833;29;20474;-78
2023/09/15 14:40:28;;;;;;;5.18;2.10;;;;;;;;;;4916861;29;20063;-82
2023/09/15 14:42:54;;;;;;;10.30;3.40;;;;;;;;;;4918757;29;20051;-82
2023/09/15 14:45:21;;;;;;;6.82;2.15;;;;;;;;;;4903734;29;20043;-82
2023/09/15 14:47:49;;;;;;;5.15;1.83;;;;;;;;;;4936364;29;20051;-82
2023/09/15 14:50:15;;;;;;;5.47;2.25;;;;;;;;;;4899924;29;20083;-82